Time;durP1;ratioP1;P1;durP2;ratioP2;P2;SDS_P1;SDS_P2;PMS_P1;PMS_P2;Temp;Humidity;BMP_temperature;BMP_pressure;BME280_temperature;BME280_humidity;BME280_pressure;Samples;Min_cycle;Max_cycle;Signal;HPM_P1;HPM_P2
2023/05/21 00:00:43;;;;;;;6.30;4.90;;;13.70;99.90;;;;;;5139323;27;20453;-43
2023/05/21 00:03:12;;;;;;;6.20;4.97;;;13.60;99.90;;;;;;5138152;27;20860;-44
2023/05/21 00:05:40;;;;;;;9.10;5.53;;;13.60;99.90;;;;;;5137167;27;20521;-44
2023/05/21 00:08:08;;;;;;;8.00;5.20;;;13.60;99.90;;;;;;5138730;27;20520;-44
2023/05/21 00:10:34;;;;;;;6.40;4.30;;;13.40;99.90;;;;;;5138978;27;20486;-44
2023/05/21 00:13:01;;;;;;;6.33;5.10;;;13.40;99.90;;;;;;5136545;27;21015;-44
2023/05/21 00:15:28;;;;;;;6.47;5.17;;;13.50;99.90;;;;;;5138426;27;20465;-44
2023/05/21 00:17:55;;;;;;;6.17;5.30;;;13.50;99.90;;;;;;5138938;27;20476;-44
2023/05/21 00:20:22;;;;;;;7.23;5.47;;;13.50;99.90;;;;;;5137009;27;20541;-44
2023/05/21 00:22:50;;;;;;;5.57;4.17;;;13.30;99.90;;;;;;5138216;27;20421;-47
2023/05/21 00:25:17;;;;;;;6.57;4.23;;;13.50;99.90;;;;;;5126375;27;20439;-44
2023/05/21 00:27:44;;;;;;;6.13;4.60;;;13.40;99.90;;;;;;5114117;28;20487;-45
2023/05/21 00:30:11;;;;;;;5.83;5.30;;;13.40;99.90;;;;;;5113857;28;20861;-44
2023/05/21 00:32:38;;;;;;;6.00;4.93;;;13.40;99.90;;;;;;5113498;28;21067;-44
2023/05/21 00:35:06;;;;;;;6.17;4.70;;;13.40;99.90;;;;;;5113473;28;20488;-44
2023/05/21 00:37:33;;;;;;;5.57;4.33;;;13.50;99.90;;;;;;5114029;28;20515;-44
2023/05/21 00:40:03;;;;;;;7.20;4.83;;;13.40;99.90;;;;;;5113650;28;20438;-44
2023/05/21 00:42:30;;;;;;;5.83;4.53;;;13.40;99.90;;;;;;5113755;28;20522;-44
2023/05/21 00:44:57;;;;;;;4.90;3.90;;;13.40;99.90;;;;;;5114064;27;20431;-43
2023/05/21 00:47:25;;;;;;;5.80;5.03;;;13.20;99.90;;;;;;5113808;28;20535;-43
2023/05/21 00:49:52;;;;;;;7.20;5.70;;;13.20;99.90;;;;;;5113735;28;20479;-44
2023/05/21 00:52:20;;;;;;;8.40;5.43;;;13.30;99.90;;;;;;5113830;28;20526;-44
2023/05/21 00:54:48;;;;;;;5.70;4.37;;;13.10;99.90;;;;;;5114103;28;20497;-44
2023/05/21 00:57:19;;;;;;;7.10;5.23;;;13.10;99.90;;;;;;5113393;28;20471;-43
2023/05/21 00:59:47;;;;;;;6.13;4.87;;;13.20;99.90;;;;;;5113721;28;20439;-44
2023/05/21 01:02:16;;;;;;;6.40;5.50;;;13.20;99.90;;;;;;5113712;28;21012;-44
2023/05/21 01:04:44;;;;;;;7.37;5.20;;;13.10;99.90;;;;;;5113524;28;20435;-44
2023/05/21 01:07:11;;;;;;;6.17;5.37;;;13.20;99.90;;;;;;5113460;28;20858;-44
2023/05/21 01:09:38;;;;;;;6.40;5.20;;;13.20;99.90;;;;;;5113317;28;20442;-44
2023/05/21 01:12:07;;;;;;;7.60;4.90;;;13.00;99.90;;;;;;5112999;28;20502;-44
2023/05/21 01:14:37;;;;;;;8.67;4.90;;;13.10;99.90;;;;;;5113379;28;20498;-44
2023/05/21 01:17:09;;;;;;;6.60;4.73;;;13.00;99.90;;;;;;5113151;27;20443;-44
2023/05/21 01:19:36;;;;;;;7.90;4.60;;;13.10;99.90;;;;;;5113302;28;20854;-44
2023/05/21 01:22:05;;;;;;;6.50;5.10;;;13.10;99.90;;;;;;5113244;27;21020;-44
2023/05/21 01:24:33;;;;;;;7.13;5.43;;;13.10;99.90;;;;;;5113184;28;20462;-43
2023/05/21 01:27:04;;;;;;;6.83;5.87;;;13.10;99.90;;;;;;5112978;28;21001;-44
2023/05/21 01:29:30;;;;;;;6.37;5.27;;;13.10;99.90;;;;;;5113395;28;20435;-44
2023/05/21 01:32:08;;;;;;;7.33;5.97;;;13.10;99.90;;;;;;5113068;28;20514;-44
2023/05/21 01:34:44;;;;;;;7.67;4.50;;;13.10;99.90;;;;;;5113181;28;20493;-44
2023/05/21 01:37:17;;;;;;;6.93;5.10;;;13.00;99.90;;;;;;5111616;28;20963;-44
2023/05/21 01:39:53;;;;;;;6.60;5.00;;;12.90;99.90;;;;;;5113263;28;20522;-44
2023/05/21 01:42:22;;;;;;;7.10;5.37;;;13.00;99.90;;;;;;5112665;28;20825;-44
2023/05/21 01:44:51;;;;;;;7.00;5.43;;;12.90;99.90;;;;;;5112937;28;20484;-44
2023/05/21 01:47:19;;;;;;;8.23;5.03;;;12.90;99.90;;;;;;5112418;28;20504;-43
2023/05/21 01:49:46;;;;;;;6.37;4.90;;;12.90;99.90;;;;;;5112345;28;21024;-44
2023/05/21 01:52:13;;;;;;;6.00;4.50;;;13.00;99.90;;;;;;5112799;28;20530;-44
2023/05/21 01:54:40;;;;;;;7.23;4.57;;;13.00;99.90;;;;;;5112786;28;20504;-44
2023/05/21 01:57:08;;;;;;;6.23;5.03;;;13.10;99.90;;;;;;5112509;28;21216;-44
2023/05/21 01:59:36;;;;;;;6.00;4.80;;;13.10;99.90;;;;;;5117074;27;20461;-44
2023/05/21 02:02:03;;;;;;;8.20;4.87;;;13.00;99.90;;;;;;5133198;27;20468;-44
2023/05/21 02:04:30;;;;;;;8.33;4.23;;;13.00;99.90;;;;;;5133120;27;21005;-44
2023/05/21 02:06:57;;;;;;;7.13;5.43;;;13.00;99.90;;;;;;5133002;27;20449;-44
2023/05/21 02:09:24;;;;;;;8.40;5.43;;;13.00;99.90;;;;;;5133027;27;20473;-44
2023/05/21 02:11:51;;;;;;;6.97;5.20;;;12.90;99.90;;;;;;5132961;27;20489;-44
2023/05/21 02:14:19;;;;;;;8.70;5.33;;;12.80;99.90;;;;;;5132786;27;20516;-44
2023/05/21 02:16:46;;;;;;;8.67;5.60;;;12.80;99.90;;;;;;5132856;27;20442;-44
2023/05/21 02:19:13;;;;;;;6.67;5.50;;;12.60;99.90;;;;;;5132975;27;20528;-44
2023/05/21 02:21:39;;;;;;;6.33;5.73;;;12.30;99.90;;;;;;5132343;27;21018;-44
2023/05/21 02:24:07;;;;;;;9.20;6.27;;;12.10;99.90;;;;;;5132777;27;20484;-44
2023/05/21 02:26:34;;;;;;;7.00;5.17;;;12.00;99.90;;;;;;5132468;27;20441;-44
2023/05/21 02:29:01;;;;;;;6.73;5.07;;;12.00;99.90;;;;;;5132872;27;20449;-44
2023/05/21 02:31:29;;;;;;;7.03;5.07;;;12.00;99.90;;;;;;5132688;27;20501;-44
2023/05/21 02:33:56;;;;;;;6.70;5.07;;;12.20;99.90;;;;;;5132646;27;20565;-44
2023/05/21 02:36:24;;;;;;;6.40;5.33;;;12.30;99.90;;;;;;5132708;27;20524;-44
2023/05/21 02:38:51;;;;;;;6.00;5.40;;;12.40;99.90;;;;;;5132543;27;20988;-44
2023/05/21 02:41:18;;;;;;;5.97;4.97;;;12.30;99.90;;;;;;5132023;27;20468;-44
2023/05/21 02:43:45;;;;;;;6.70;5.60;;;12.40;99.90;;;;;;5132346;27;21068;-44
2023/05/21 02:46:12;;;;;;;6.90;5.50;;;12.50;99.90;;;;;;5132346;27;20903;-44
2023/05/21 02:48:40;;;;;;;5.53;4.20;;;12.40;99.90;;;;;;5131657;27;20519;-43
2023/05/21 02:51:07;;;;;;;8.07;5.53;;;12.50;99.90;;;;;;5132005;27;20493;-43
2023/05/21 02:53:34;;;;;;;6.60;5.27;;;12.50;99.90;;;;;;5132128;27;20573;-44
2023/05/21 02:56:01;;;;;;;6.90;5.10;;;12.50;99.90;;;;;;5131827;27;20817;-44
2023/05/21 02:58:28;;;;;;;8.30;5.30;;;12.50;99.90;;;;;;5131786;27;20882;-44
2023/05/21 03:00:54;;;;;;;6.90;5.60;;;12.60;99.90;;;;;;5131980;27;20470;-44
2023/05/21 03:03:21;;;;;;;5.90;4.93;;;12.70;99.90;;;;;;5132077;27;20480;-44
2023/05/21 03:05:50;;;;;;;8.03;5.00;;;12.60;99.90;;;;;;5132067;27;20828;-44
2023/05/21 03:08:17;;;;;;;6.93;5.67;;;12.60;99.90;;;;;;5132325;27;20465;-44
2023/05/21 03:10:43;;;;;;;8.03;5.57;;;12.50;99.90;;;;;;5131979;27;20828;-42
2023/05/21 03:13:10;;;;;;;7.43;6.13;;;12.60;99.90;;;;;;5131685;27;20560;-44
2023/05/21 03:15:38;;;;;;;6.70;5.00;;;12.60;99.90;;;;;;5131940;27;20481;-44
2023/05/21 03:18:05;;;;;;;8.70;5.80;;;12.50;99.90;;;;;;5132019;27;20442;-44
2023/05/21 03:20:32;;;;;;;6.87;5.20;;;12.50;99.90;;;;;;5131723;27;20466;-44
2023/05/21 03:23:03;;;;;;;6.90;5.07;;;12.60;99.90;;;;;;5131736;27;20950;-44
2023/05/21 03:25:30;;;;;;;7.13;5.10;;;12.50;99.90;;;;;;5132072;27;20434;-44
2023/05/21 03:27:56;;;;;;;7.13;4.93;;;12.50;99.90;;;;;;5131991;27;20621;-44
2023/05/21 03:30:23;;;;;;;5.63;4.63;;;12.40;99.90;;;;;;5131845;27;20497;-44
2023/05/21 03:32:50;;;;;;;8.27;5.50;;;12.40;99.90;;;;;;5131471;27;20983;-44
2023/05/21 03:35:17;;;;;;;7.37;5.70;;;12.40;99.90;;;;;;5131734;27;20526;-43
2023/05/21 03:37:45;;;;;;;5.90;5.30;;;12.40;99.90;;;;;;5131980;27;20462;-44
2023/05/21 03:40:14;;;;;;;9.80;5.40;;;12.40;99.90;;;;;;5131560;27;20518;-44
2023/05/21 03:42:41;;;;;;;6.27;4.90;;;12.40;99.90;;;;;;5131850;27;20498;-44
2023/05/21 03:45:09;;;;;;;7.87;5.33;;;12.20;99.90;;;;;;5131915;27;20465;-43
2023/05/21 03:47:35;;;;;;;11.80;5.57;;;12.30;99.90;;;;;;5131125;27;20824;-44
2023/05/21 03:50:04;;;;;;;9.63;5.57;;;12.20;99.90;;;;;;5132040;27;20856;-44
2023/05/21 03:52:31;;;;;;;5.80;4.97;;;12.20;99.90;;;;;;5131733;27;20463;-44
2023/05/21 03:54:58;;;;;;;6.10;4.73;;;12.20;99.90;;;;;;5131235;27;20572;-43
2023/05/21 03:57:26;;;;;;;7.00;5.10;;;12.20;99.90;;;;;;5130756;27;20528;-41
2023/05/21 03:59:53;;;;;;;6.97;5.67;;;12.20;99.90;;;;;;5133913;27;20441;-44
2023/05/21 04:02:21;;;;;;;7.40;5.90;;;12.20;99.90;;;;;;5135405;27;20445;-44
2023/05/21 04:04:50;;;;;;;7.27;5.80;;;12.20;99.90;;;;;;5135537;27;20437;-44
2023/05/21 04:07:17;;;;;;;6.40;5.10;;;12.20;99.90;;;;;;5135195;27;20512;-45
2023/05/21 04:09:45;;;;;;;7.50;5.43;;;12.20;99.90;;;;;;5135233;27;20449;-44
2023/05/21 04:12:12;;;;;;;9.17;5.67;;;12.30;99.90;;;;;;5134905;27;20948;-44
2023/05/21 04:14:41;;;;;;;7.20;5.37;;;12.00;99.90;;;;;;5135461;27;20557;-44
2023/05/21 04:17:08;;;;;;;8.63;6.10;;;11.90;99.90;;;;;;5134845;27;20485;-44
2023/05/21 04:19:35;;;;;;;6.83;5.50;;;12.00;99.90;;;;;;5135039;27;20533;-44
2023/05/21 04:22:02;;;;;;;14.83;6.60;;;11.80;99.90;;;;;;5135138;27;20457;-44
2023/05/21 04:24:29;;;;;;;14.27;6.20;;;11.60;99.90;;;;;;5134774;27;20448;-44
2023/05/21 04:26:59;;;;;;;7.37;5.33;;;11.70;99.90;;;;;;5134769;27;20537;-44
2023/05/21 04:29:26;;;;;;;6.07;5.30;;;11.80;99.90;;;;;;5134925;27;20771;-44
2023/05/21 04:31:55;;;;;;;8.30;5.80;;;11.90;99.90;;;;;;5134926;27;20469;-44
2023/05/21 04:34:22;;;;;;;12.77;7.00;;;12.00;99.90;;;;;;5134791;27;20505;-44
2023/05/21 04:36:50;;;;;;;7.73;6.27;;;12.00;99.90;;;;;;5134662;27;20450;-44
2023/05/21 04:39:17;;;;;;;9.10;5.90;;;12.00;99.90;;;;;;5134430;27;20447;-44
2023/05/21 04:41:44;;;;;;;9.50;5.63;;;12.00;99.90;;;;;;5134552;27;20491;-44
2023/05/21 04:44:13;;;;;;;8.23;6.30;;;12.00;99.90;;;;;;5134783;27;21139;-44
2023/05/21 04:46:40;;;;;;;7.93;6.10;;;11.90;99.90;;;;;;5134647;27;20445;-44
2023/05/21 04:49:10;;;;;;;7.00;5.70;;;12.00;99.90;;;;;;5134191;27;20970;-43
2023/05/21 04:51:37;;;;;;;6.80;5.63;;;12.10;99.90;;;;;;5134290;27;20466;-44
2023/05/21 04:54:04;;;;;;;8.27;6.60;;;12.20;99.90;;;;;;5134254;27;20485;-44
2023/05/21 04:56:31;;;;;;;7.17;6.17;;;12.10;99.90;;;;;;5134336;27;20480;-44
2023/05/21 04:58:58;;;;;;;6.20;5.30;;;12.20;99.90;;;;;;5133916;27;20441;-44
2023/05/21 05:01:28;;;;;;;6.13;5.40;;;12.30;99.90;;;;;;5134173;27;20549;-44
2023/05/21 05:03:55;;;;;;;8.37;5.57;;;12.30;99.90;;;;;;5134844;27;20514;-44
2023/05/21 05:06:24;;;;;;;6.67;5.60;;;12.30;99.90;;;;;;5134178;27;20438;-44
2023/05/21 05:08:51;;;;;;;7.27;5.50;;;12.40;99.90;;;;;;5134216;27;20519;-44
2023/05/21 05:11:18;;;;;;;7.27;5.90;;;12.40;99.90;;;;;;5133770;27;20543;-45
2023/05/21 05:13:45;;;;;;;7.97;6.37;;;12.30;99.90;;;;;;5133883;27;20947;-44
2023/05/21 05:16:13;;;;;;;8.53;6.33;;;12.30;99.90;;;;;;5133740;27;20536;-44
2023/05/21 05:18:40;;;;;;;8.73;6.60;;;12.30;99.90;;;;;;5134259;27;20815;-44
2023/05/21 05:21:07;;;;;;;9.13;6.40;;;12.40;99.90;;;;;;5133626;27;20556;-44
2023/05/21 05:23:35;;;;;;;8.80;5.83;;;12.40;99.90;;;;;;5133987;27;20474;-44
2023/05/21 05:26:02;;;;;;;6.63;5.93;;;12.30;99.90;;;;;;5134115;27;20521;-44
2023/05/21 05:28:29;;;;;;;9.33;6.60;;;12.20;99.90;;;;;;5122639;27;20431;-44
2023/05/21 05:30:56;;;;;;;10.10;7.03;;;12.20;99.90;;;;;;5122933;27;20461;-44
2023/05/21 05:33:23;;;;;;;10.23;7.10;;;12.40;99.90;;;;;;5123131;27;20526;-44
2023/05/21 05:35:50;;;;;;;9.43;7.10;;;12.50;99.90;;;;;;5121454;27;20466;-44
2023/05/21 05:38:16;;;;;;;7.83;6.33;;;12.50;99.90;;;;;;5123107;27;20871;-45
2023/05/21 05:40:45;;;;;;;7.30;6.30;;;12.50;99.90;;;;;;5123492;27;20530;-42
2023/05/21 05:43:12;;;;;;;10.10;5.97;;;12.60;99.90;;;;;;5121931;27;20459;-44
2023/05/21 05:45:39;;;;;;;9.30;7.17;;;12.60;99.90;;;;;;5121738;27;20997;-44
2023/05/21 05:48:06;;;;;;;10.13;6.37;;;12.70;99.90;;;;;;5121727;27;20525;-44
2023/05/21 05:50:33;;;;;;;7.47;6.20;;;12.70;99.90;;;;;;5120443;27;20542;-44
2023/05/21 05:53:00;;;;;;;10.20;7.37;;;12.80;99.90;;;;;;5120761;27;20477;-44
2023/05/21 05:55:27;;;;;;;8.20;6.07;;;12.80;99.90;;;;;;5122317;27;20561;-44
2023/05/21 05:57:55;;;;;;;6.00;5.40;;;12.80;99.90;;;;;;5119361;27;20435;-44
2023/05/21 06:00:22;;;;;;;8.70;7.03;;;12.90;99.90;;;;;;5121447;27;20512;-45
2023/05/21 06:02:49;;;;;;;7.63;6.80;;;12.90;99.90;;;;;;5123452;27;20511;-44
2023/05/21 06:05:16;;;;;;;9.50;7.20;;;12.90;99.90;;;;;;5121923;27;20519;-44
2023/05/21 06:07:43;;;;;;;6.80;6.10;;;13.20;99.90;;;;;;5121933;27;20829;-45
2023/05/21 06:10:10;;;;;;;7.87;6.77;;;13.40;99.90;;;;;;5123614;27;20457;-44
2023/05/21 06:12:37;;;;;;;9.57;6.83;;;13.70;99.90;;;;;;5121922;27;20471;-45
2023/05/21 06:15:06;;;;;;;8.33;6.37;;;13.90;99.90;;;;;;5124053;27;20578;-44
2023/05/21 06:17:33;;;;;;;7.50;5.70;;;14.10;99.90;;;;;;5121390;27;20519;-45
2023/05/21 06:20:00;;;;;;;9.00;6.87;;;14.30;99.90;;;;;;5121868;27;20430;-44
2023/05/21 06:22:27;;;;;;;9.40;6.50;;;14.40;99.90;;;;;;5121738;27;20466;-45
2023/05/21 06:24:54;;;;;;;8.73;6.60;;;14.50;99.90;;;;;;5121169;27;20467;-42
2023/05/21 06:27:21;;;;;;;7.57;6.17;;;14.70;99.90;;;;;;5121907;27;20468;-44
2023/05/21 06:29:48;;;;;;;9.57;6.73;;;14.80;99.90;;;;;;5122889;27;20471;-45
2023/05/21 06:32:16;;;;;;;9.83;7.13;;;14.80;99.90;;;;;;5121171;27;20523;-46
2023/05/21 06:34:43;;;;;;;8.53;6.37;;;14.80;99.90;;;;;;5121560;27;20496;-45
2023/05/21 06:37:10;;;;;;;8.30;6.67;;;14.90;99.90;;;;;;5122836;27;20517;-44
2023/05/21 06:39:37;;;;;;;7.97;5.87;;;14.90;99.90;;;;;;5121366;27;20459;-44
2023/05/21 06:42:04;;;;;;;9.53;6.67;;;15.00;99.90;;;;;;5121390;27;20537;-45
2023/05/21 06:44:31;;;;;;;6.63;5.93;;;15.00;99.90;;;;;;5122525;27;20462;-44
2023/05/21 06:46:58;;;;;;;6.80;5.73;;;15.00;99.90;;;;;;5121455;27;20527;-45
2023/05/21 06:49:26;;;;;;;7.53;6.60;;;15.00;99.90;;;;;;5121059;27;20491;-44
2023/05/21 06:51:53;;;;;;;7.40;6.47;;;15.20;99.90;;;;;;5120505;27;20541;-44
2023/05/21 06:54:20;;;;;;;7.20;6.50;;;15.20;99.90;;;;;;5121522;27;20955;-45
2023/05/21 06:56:46;;;;;;;7.07;5.40;;;15.30;99.90;;;;;;5121763;27;20507;-41
2023/05/21 06:59:13;;;;;;;9.30;6.40;;;15.40;99.90;;;;;;5120189;27;20467;-44
2023/05/21 07:01:42;;;;;;;7.20;6.23;;;15.50;99.90;;;;;;5121123;27;20462;-45
2023/05/21 07:04:09;;;;;;;8.70;6.50;;;15.50;99.90;;;;;;5122779;27;20438;-45
2023/05/21 07:06:38;;;;;;;8.27;6.40;;;15.60;99.90;;;;;;5120409;27;20446;-44
2023/05/21 07:09:05;;;;;;;9.47;6.10;;;15.70;99.90;;;;;;5121049;27;20895;-45
2023/05/21 07:11:32;;;;;;;8.90;7.03;;;15.80;99.90;;;;;;5122089;27;21043;-45
2023/05/21 07:14:00;;;;;;;8.83;7.00;;;15.90;99.90;;;;;;5121165;28;20541;-45
2023/05/21 07:16:27;;;;;;;9.00;6.70;;;15.90;99.90;;;;;;5120360;27;20471;-44
2023/05/21 07:18:54;;;;;;;6.80;5.83;;;16.00;99.90;;;;;;5120615;27;20523;-45
2023/05/21 07:21:21;;;;;;;10.30;5.87;;;16.10;99.90;;;;;;5120302;27;20463;-45
2023/05/21 07:23:49;;;;;;;7.50;6.00;;;16.10;99.90;;;;;;5122016;28;20436;-44
2023/05/21 07:26:16;;;;;;;7.53;5.20;;;16.20;99.90;;;;;;5120531;28;20977;-44
2023/05/21 07:28:43;;;;;;;7.63;5.90;;;16.30;99.90;;;;;;5121038;27;20514;-44
2023/05/21 07:31:12;;;;;;;7.50;6.37;;;16.30;99.90;;;;;;5121966;28;20488;-52
2023/05/21 07:33:39;;;;;;;7.40;5.50;;;16.40;99.90;;;;;;5120934;27;20843;-45
2023/05/21 07:36:06;;;;;;;6.77;5.20;;;16.50;99.90;;;;;;5124439;27;20847;-44
2023/05/21 07:38:33;;;;;;;6.93;6.17;;;16.60;99.90;;;;;;5124059;27;20431;-45
2023/05/21 07:41:01;;;;;;;9.07;6.13;;;16.70;99.90;;;;;;5125337;27;20546;-44
2023/05/21 07:43:28;;;;;;;9.27;6.47;;;16.80;99.90;;;;;;5126278;27;20527;-44
2023/05/21 07:45:55;;;;;;;7.27;6.07;;;16.80;99.90;;;;;;5124426;27;20474;-45
2023/05/21 07:48:22;;;;;;;7.00;5.90;;;17.00;99.90;;;;;;5124585;27;20530;-44
2023/05/21 07:50:51;;;;;;;6.83;5.70;;;17.00;99.90;;;;;;5126003;27;20503;-45
2023/05/21 07:53:18;;;;;;;7.77;5.77;;;17.10;99.90;;;;;;5125057;27;20434;-44
2023/05/21 07:55:47;;;;;;;7.50;5.90;;;17.10;99.90;;;;;;5123588;27;20466;-44
2023/05/21 07:58:16;;;;;;;8.57;5.97;;;17.20;99.90;;;;;;5124183;27;20435;-45
2023/05/21 08:00:46;;;;;;;7.47;6.40;;;17.20;99.90;;;;;;5125332;27;20478;-42
2023/05/21 08:03:15;;;;;;;7.47;6.13;;;17.30;99.90;;;;;;5124225;27;20441;-45
2023/05/21 08:05:47;;;;;;;7.70;5.50;;;17.30;99.90;;;;;;5124003;27;20819;-44
2023/05/21 08:08:14;;;;;;;7.33;5.70;;;17.30;99.90;;;;;;5126340;27;20527;-44
2023/05/21 08:10:41;;;;;;;8.27;6.63;;;17.30;99.90;;;;;;5126072;27;20489;-44
2023/05/21 08:13:08;;;;;;;6.70;6.00;;;17.30;99.90;;;;;;5134773;27;20535;-44
2023/05/21 08:15:36;;;;;;;8.43;6.00;;;17.40;99.90;;;;;;5135043;27;20516;-45
2023/05/21 08:18:03;;;;;;;6.40;5.10;;;17.40;99.90;;;;;;5135155;27;20958;-44
2023/05/21 08:20:31;;;;;;;7.20;6.00;;;17.50;99.90;;;;;;5135004;27;20522;-44
2023/05/21 08:22:58;;;;;;;7.27;5.80;;;17.60;99.90;;;;;;5134366;27;20444;-44
2023/05/21 08:25:26;;;;;;;6.87;5.07;;;17.70;99.90;;;;;;5134713;27;20469;-44
2023/05/21 08:27:52;;;;;;;6.80;5.90;;;17.70;99.90;;;;;;5135074;27;20473;-45
2023/05/21 08:30:20;;;;;;;9.27;6.40;;;17.80;99.90;;;;;;5134665;27;20534;-44
2023/05/21 08:32:49;;;;;;;7.80;6.83;;;17.90;99.90;;;;;;5122436;27;20563;-44
2023/05/21 08:35:16;;;;;;;6.07;5.47;;;17.90;99.90;;;;;;5131842;27;21026;-45
2023/05/21 08:37:43;;;;;;;7.40;6.40;;;17.90;99.90;;;;;;5131340;27;20498;-44
2023/05/21 08:40:11;;;;;;;6.77;5.63;;;17.90;99.90;;;;;;5131658;27;20539;-44
2023/05/21 08:42:44;;;;;;;6.37;5.77;;;17.90;99.90;;;;;;5130468;27;20895;-44
2023/05/21 08:45:13;;;;;;;7.37;6.10;;;18.00;99.90;;;;;;5129708;27;20440;-44
2023/05/21 08:47:42;;;;;;;6.33;5.50;;;18.00;99.90;;;;;;5130125;27;20448;-44
2023/05/21 08:50:13;;;;;;;7.50;6.17;;;18.10;99.90;;;;;;5130053;27;20899;-44
2023/05/21 08:52:40;;;;;;;10.10;5.40;;;18.20;99.90;;;;;;5129992;27;20529;-44
2023/05/21 08:55:09;;;;;;;7.50;5.70;;;18.30;99.90;;;;;;5130257;27;20580;-44
2023/05/21 08:57:36;;;;;;;6.60;5.30;;;18.40;99.90;;;;;;5129932;27;20451;-44
2023/05/21 09:00:05;;;;;;;6.80;6.10;;;18.50;99.90;;;;;;5131665;27;20528;-44
2023/05/21 09:02:35;;;;;;;6.80;6.07;;;18.50;99.90;;;;;;5129160;27;20471;-44
2023/05/21 09:05:03;;;;;;;6.60;5.23;;;18.50;99.90;;;;;;5131406;27;20454;-43
2023/05/21 09:07:37;;;;;;;6.20;5.60;;;18.60;99.90;;;;;;5131947;27;20466;-44
2023/05/21 09:10:08;;;;;;;8.23;5.97;;;18.70;99.90;;;;;;5131597;27;20972;-44
2023/05/21 09:12:36;;;;;;;9.93;6.27;;;18.70;99.90;;;;;;5131696;27;20454;-45
2023/05/21 09:15:04;;;;;;;7.83;6.43;;;18.70;99.90;;;;;;5131393;27;20450;-45
2023/05/21 09:17:31;;;;;;;7.50;6.30;;;18.80;99.90;;;;;;5131579;27;20461;-44
2023/05/21 09:20:13;;;;;;;7.63;6.00;;;18.90;99.90;;;;;;5131436;27;20525;-44
2023/05/21 09:22:43;;;;;;;7.87;6.00;;;19.00;99.90;;;;;;5130166;27;20536;-44
2023/05/21 09:25:11;;;;;;;8.07;6.20;;;19.10;99.90;;;;;;5131534;27;20532;-45
2023/05/21 09:27:38;;;;;;;8.10;6.63;;;19.20;99.90;;;;;;5130894;27;20982;-45
2023/05/21 09:30:09;;;;;;;9.37;6.20;;;19.30;99.90;;;;;;5130996;27;20463;-44
2023/05/21 09:32:37;;;;;;;9.07;6.00;;;19.50;99.90;;;;;;5128474;27;20755;-44
2023/05/21 09:35:09;;;;;;;6.60;5.90;;;19.50;99.90;;;;;;5122978;27;20445;-44
2023/05/21 09:37:39;;;;;;;6.27;5.57;;;19.60;99.90;;;;;;5131366;27;20440;-44
2023/05/21 09:40:18;;;;;;;12.37;7.87;;;19.70;99.90;;;;;;5130997;27;20489;-44
2023/05/21 09:42:47;;;;;;;6.40;5.67;;;19.80;99.90;;;;;;5121723;27;20450;-45
2023/05/21 09:45:18;;;;;;;9.40;6.80;;;19.90;99.90;;;;;;5118978;27;20591;-45
2023/05/21 09:47:46;;;;;;;7.33;6.40;;;19.90;99.90;;;;;;5119072;27;20527;-44
2023/05/21 09:50:13;;;;;;;7.70;5.90;;;20.20;99.90;;;;;;5119273;27;20540;-44
2023/05/21 09:52:41;;;;;;;9.53;7.07;;;20.30;99.90;;;;;;5120795;27;20566;-44
2023/05/21 09:55:11;;;;;;;9.90;6.50;;;20.30;99.90;;;;;;5126780;27;20530;-44
2023/05/21 09:57:42;;;;;;;8.20;6.53;;;20.20;99.90;;;;;;5150928;27;20447;-44
2023/05/21 10:00:17;;;;;;;8.10;6.73;;;20.20;99.90;;;;;;5133152;27;20951;-45
2023/05/21 10:02:45;;;;;;;7.27;6.50;;;20.20;99.90;;;;;;5121002;27;20462;-44
2023/05/21 10:05:14;;;;;;;7.13;6.27;;;20.30;99.90;;;;;;5122319;27;20440;-45
2023/05/21 10:07:42;;;;;;;8.10;7.00;;;20.30;99.90;;;;;;5123090;27;20443;-44
2023/05/21 10:10:13;;;;;;;7.07;6.37;;;20.30;99.90;;;;;;5111908;28;20505;-44
2023/05/21 10:12:44;;;;;;;8.07;5.87;;;20.40;99.90;;;;;;5112405;28;20473;-44
2023/05/21 10:15:15;;;;;;;7.20;6.27;;;20.50;99.90;;;;;;5112036;28;20449;-44
2023/05/21 10:17:44;;;;;;;8.37;6.10;;;20.50;99.90;;;;;;5112332;28;20485;-44
2023/05/21 10:20:12;;;;;;;8.20;6.03;;;20.60;99.90;;;;;;5112164;28;20960;-45
2023/05/21 10:22:39;;;;;;;9.20;6.07;;;20.60;99.90;;;;;;5111537;28;20482;-44
2023/05/21 10:25:08;;;;;;;9.50;5.57;;;20.70;99.90;;;;;;5111843;28;20486;-45
2023/05/21 10:27:35;;;;;;;7.43;5.90;;;20.70;99.90;;;;;;5112120;28;20516;-44
2023/05/21 10:30:05;;;;;;;7.40;5.80;;;20.90;99.90;;;;;;5111848;28;20526;-45
2023/05/21 10:32:33;;;;;;;7.07;5.73;;;21.20;99.90;;;;;;5112371;28;20435;-44
2023/05/21 10:35:01;;;;;;;8.30;5.87;;;21.30;99.90;;;;;;5112328;28;20507;-44
2023/05/21 10:37:28;;;;;;;8.97;5.57;;;21.40;99.90;;;;;;5111722;28;20482;-44
2023/05/21 10:39:56;;;;;;;7.03;5.33;;;21.40;99.90;;;;;;5111936;28;20534;-44
2023/05/21 10:42:48;;;;;;;5.73;5.13;;;21.40;99.90;;;;;;5111520;28;20471;-44
2023/05/21 10:45:24;;;;;;;7.10;4.63;;;21.40;99.90;;;;;;5111726;28;21025;-45
2023/05/21 10:48:12;;;;;;;5.70;4.90;;;21.50;99.90;;;;;;5111896;28;20837;-45
2023/05/21 10:51:03;;;;;;;5.20;4.37;;;21.60;99.90;;;;;;5111623;28;20545;-45
2023/05/21 10:53:46;;;;;;;6.93;5.37;;;21.60;98.50;;;;;;5109448;27;21008;-45
2023/05/21 10:56:22;;;;;;;6.73;5.30;;;21.60;99.90;;;;;;5111644;28;20561;-44
2023/05/21 10:59:14;;;;;;;6.50;4.60;;;21.70;99.90;;;;;;5110387;28;20485;-44
2023/05/21 11:01:43;;;;;;;7.20;5.50;;;21.70;99.90;;;;;;5111335;28;20470;-44
2023/05/21 11:04:14;;;;;;;7.67;4.70;;;21.70;99.90;;;;;;5111816;28;20482;-45
2023/05/21 11:06:46;;;;;;;22.67;6.23;;;21.80;99.90;;;;;;5111528;28;20439;-45
2023/05/21 11:09:15;;;;;;;6.23;4.97;;;21.90;98.00;;;;;;5111449;28;20820;-44
2023/05/21 11:11:44;;;;;;;6.23;4.50;;;21.90;96.60;;;;;;5111155;28;20549;-44
2023/05/21 11:14:33;;;;;;;6.50;4.70;;;22.10;97.80;;;;;;5111658;28;20438;-44
2023/05/21 11:17:03;;;;;;;7.47;5.27;;;22.20;98.60;;;;;;5111752;28;20490;-45
2023/05/21 11:19:35;;;;;;;5.90;4.73;;;22.40;98.10;;;;;;5111455;28;20442;-44
2023/05/21 11:22:07;;;;;;;9.27;4.90;;;22.40;99.90;;;;;;5111320;28;20510;-44
2023/05/21 11:24:38;;;;;;;5.93;4.87;;;22.30;99.90;;;;;;5111383;28;20443;-45
2023/05/21 11:27:05;;;;;;;6.33;4.87;;;22.30;97.50;;;;;;5111954;28;20438;-44
2023/05/21 11:29:43;;;;;;;6.53;4.80;;;22.40;98.20;;;;;;5111071;28;20499;-45
2023/05/21 11:32:12;;;;;;;7.00;5.00;;;22.40;96.90;;;;;;5111198;28;20442;-45
2023/05/21 11:34:42;;;;;;;6.37;4.60;;;22.50;94.70;;;;;;5111869;28;20442;-45
2023/05/21 11:37:40;;;;;;;7.20;4.80;;;22.50;95.60;;;;;;5110718;28;20471;-45
2023/05/21 11:40:22;;;;;;;5.97;4.60;;;22.40;95.10;;;;;;5048377;28;20465;-45
2023/05/21 11:42:51;;;;;;;5.80;4.60;;;22.40;95.00;;;;;;5103239;28;20451;-44
2023/05/21 11:45:19;;;;;;;5.70;4.70;;;22.40;95.30;;;;;;5110689;28;20515;-44
2023/05/21 11:47:49;;;;;;;6.50;5.03;;;22.50;96.10;;;;;;5111258;28;20438;-45
2023/05/21 11:50:16;;;;;;;7.03;5.10;;;22.60;96.20;;;;;;5110844;28;20987;-45
2023/05/21 11:52:44;;;;;;;6.80;4.40;;;22.70;96.40;;;;;;5110927;28;20435;-45
2023/05/21 11:55:11;;;;;;;6.00;4.70;;;22.70;97.30;;;;;;5110747;28;20446;-44
2023/05/21 11:57:41;;;;;;;6.20;4.77;;;22.60;97.20;;;;;;5109765;28;20697;-44
2023/05/21 12:00:14;;;;;;;5.43;4.90;;;22.60;97.60;;;;;;5111117;28;20512;-45
2023/05/21 12:02:45;;;;;;;5.20;4.00;;;22.70;97.00;;;;;;5110673;28;20446;-45
2023/05/21 12:05:13;;;;;;;6.27;4.40;;;22.70;95.90;;;;;;5111021;28;20453;-44
2023/05/21 12:07:41;;;;;;;5.17;4.33;;;22.80;97.70;;;;;;5110892;28;20470;-45
2023/05/21 12:10:08;;;;;;;6.50;5.23;;;22.70;92.50;;;;;;5110793;28;20474;-45
2023/05/21 12:12:36;;;;;;;5.50;4.67;;;22.70;96.70;;;;;;5110712;28;20450;-45
2023/05/21 12:15:04;;;;;;;5.87;4.73;;;22.70;95.20;;;;;;5110642;28;20470;-44
2023/05/21 12:17:31;;;;;;;5.87;5.03;;;22.70;95.90;;;;;;5110793;28;21066;-44
2023/05/21 12:20:00;;;;;;;4.70;4.03;;;22.70;95.50;;;;;;5111549;28;20809;-44
2023/05/21 12:22:28;;;;;;;5.93;4.20;;;22.80;92.50;;;;;;5114456;28;20449;-44
2023/05/21 12:24:57;;;;;;;7.20;4.67;;;22.70;94.10;;;;;;5114819;27;20475;-43
2023/05/21 12:27:24;;;;;;;7.13;4.70;;;22.70;96.30;;;;;;5114678;28;20438;-45
2023/05/21 12:29:51;;;;;;;5.93;4.47;;;22.70;97.40;;;;;;5114364;28;20900;-45
2023/05/21 12:32:21;;;;;;;6.90;4.47;;;22.70;95.90;;;;;;5114669;28;20526;-44
2023/05/21 12:34:50;;;;;;;5.87;4.60;;;22.80;94.90;;;;;;5114390;28;20461;-45
2023/05/21 12:37:19;;;;;;;5.30;3.97;;;23.00;94.40;;;;;;5113994;28;20486;-44
2023/05/21 12:39:48;;;;;;;6.47;4.20;;;23.10;97.70;;;;;;5114409;28;20450;-45
2023/05/21 12:42:16;;;;;;;5.20;3.80;;;23.20;96.60;;;;;;5113638;28;20529;-44
2023/05/21 12:44:45;;;;;;;5.13;3.97;;;23.30;92.70;;;;;;5113777;28;20526;-44
2023/05/21 12:47:12;;;;;;;4.87;4.37;;;23.30;93.80;;;;;;5113998;28;20435;-45
2023/05/21 12:49:40;;;;;;;6.37;4.87;;;23.30;95.50;;;;;;5113743;28;20530;-45
2023/05/21 12:52:11;;;;;;;5.27;3.93;;;23.40;95.90;;;;;;5113733;28;20922;-44